ADDS METAR Data INFO
IDs: Format: Raw Decoded Include TAF

Data at: 1415 UTC 12 Dec 2017

KBRO 121353Z 32005KT 10SM CLR 13/07 A3031 RMK AO2 SLP262 T01280072